createdAt,value
2023-03-11T00:00:49.695Z,29.25
2023-03-11T00:03:51.738Z,31.95
2023-03-11T00:06:54.096Z,30.63
2023-03-11T00:09:55.874Z,26.73
2023-03-11T00:12:59.332Z,30.65
2023-03-11T00:16:01.350Z,28.20
2023-03-11T00:19:03.290Z,30.80
2023-03-11T00:22:05.147Z,30.67
2023-03-11T00:25:07.281Z,27.98
2023-03-11T00:28:10.591Z,26.97
2023-03-11T00:31:13.872Z,30.30
2023-03-11T00:34:15.764Z,29.35
2023-03-11T00:37:17.597Z,28.83
2023-03-11T00:40:21.149Z,29.08
2023-03-11T00:43:22.977Z,30.40
2023-03-11T00:46:24.973Z,28.55
2023-03-11T00:49:26.931Z,31.07
2023-03-11T00:52:29.139Z,32.50
2023-03-11T00:55:33.587Z,27.88
2023-03-11T00:58:37.312Z,30.60
2023-03-11T01:01:39.394Z,35.47
2023-03-11T01:04:43.776Z,29.48
2023-03-11T01:07:46.092Z,28.60
2023-03-11T01:10:47.964Z,28.05
2023-03-11T01:13:52.878Z,27.02
2023-03-11T01:16:57.319Z,28.17
2023-03-11T01:19:59.174Z,30.23
2023-03-11T01:23:01.167Z,29.90
2023-03-11T01:26:03.494Z,25.60
2023-03-11T01:29:05.519Z,29.77
2023-03-11T01:32:07.857Z,28.58
2023-03-11T01:35:17.664Z,30.80
2023-03-11T01:38:19.474Z,28.17
2023-03-11T01:41:24.858Z,30.48
2023-03-11T01:44:27.070Z,28.90
2023-03-11T01:47:36.534Z,34.42
2023-03-11T01:50:45.074Z,31.17
2023-03-11T01:53:47.350Z,30.85
2023-03-11T01:56:51.630Z,32.45
2023-03-11T01:59:58.662Z,29.45
2023-03-11T02:03:06.457Z,30.63
2023-03-11T02:06:22.000Z,31.70
2023-03-11T02:09:27.118Z,35.45
2023-03-11T02:12:31.341Z,31.75
2023-03-11T02:15:33.681Z,32.20
2023-03-11T02:18:36.680Z,34.92
2023-03-11T02:21:39.899Z,30.23
2023-03-11T02:24:57.954Z,31.88
2023-03-11T02:28:03.126Z,40.90
2023-03-11T02:31:05.206Z,38.65
2023-03-11T02:34:15.966Z,37.60
2023-03-11T02:37:18.599Z,35.67
2023-03-11T02:41:02.051Z,37.25
2023-03-11T02:44:08.381Z,35.17
2023-03-11T02:47:10.907Z,35.60
2023-03-11T02:50:18.809Z,32.75
2023-03-11T02:53:21.046Z,33.83
2023-03-11T02:56:23.182Z,34.40
2023-03-11T02:59:25.099Z,32.73
2023-03-11T03:02:28.772Z,32.10
2023-03-11T03:05:33.521Z,34.83
2023-03-11T03:08:36.932Z,34.97
2023-03-11T03:11:39.050Z,33.92
2023-03-11T03:14:41.009Z,34.53
2023-03-11T03:17:43.234Z,37.65
2023-03-11T03:20:45.301Z,36.45
2023-03-11T03:26:52.113Z,44.30
2023-03-11T03:29:54.274Z,43.53
2023-03-11T03:32:56.862Z,51.55
2023-03-11T03:35:58.972Z,50.80
2023-03-11T03:39:05.654Z,52.90
2023-03-11T03:42:14.148Z,51.97
2023-03-11T03:45:16.887Z,68.72
2023-03-11T03:48:21.333Z,75.90
2023-03-11T03:51:23.425Z,56.15
2023-03-11T03:54:38.317Z,63.95
2023-03-11T03:57:42.978Z,54.97
2023-03-11T04:00:47.994Z,59.90
2023-03-11T04:03:50.301Z,58.80
2023-03-11T04:06:52.240Z,54.10
2023-03-11T04:09:54.588Z,90.25
2023-03-11T04:12:57.186Z,86.28
2023-03-11T04:15:59.577Z,95.95
2023-03-11T04:19:01.792Z,91.83
2023-03-11T04:22:04.163Z,99.38
2023-03-11T04:25:09.279Z,93.07
2023-03-11T04:28:12.176Z,84.70
2023-03-11T04:31:14.168Z,101.75
2023-03-11T04:34:16.439Z,129.23
2023-03-11T04:37:18.654Z,122.15
2023-03-11T04:40:20.717Z,111.25
2023-03-11T04:43:22.857Z,139.77
2023-03-11T04:46:24.898Z,122.55
2023-03-11T04:49:27.036Z,121.90
2023-03-11T04:52:29.342Z,130.43
2023-03-11T04:55:31.559Z,140.10
2023-03-11T04:58:33.895Z,87.67
2023-03-11T05:01:36.062Z,124.32
2023-03-11T05:04:40.654Z,129.60
2023-03-11T05:07:42.960Z,130.38
2023-03-11T05:10:48.086Z,107.30
2023-03-11T05:13:50.545Z,108.88
2023-03-11T05:16:53.278Z,102.57
2023-03-11T05:19:55.253Z,100.22
2023-03-11T05:23:06.064Z,112.38
2023-03-11T05:26:10.386Z,91.15
2023-03-11T05:29:13.805Z,132.30
2023-03-11T05:32:15.996Z,99.32
2023-03-11T05:35:20.848Z,127.00
2023-03-11T05:38:25.450Z,109.90
2023-03-11T05:41:29.692Z,79.65
2023-03-11T05:44:36.075Z,97.97
2023-03-11T05:47:38.639Z,87.05
2023-03-11T05:50:41.308Z,115.45
2023-03-11T05:53:51.147Z,91.65
2023-03-11T05:57:01.377Z,87.18
2023-03-11T06:00:10.523Z,85.57
2023-03-11T06:03:15.186Z,121.05
2023-03-11T06:06:17.883Z,95.32
2023-03-11T06:09:21.116Z,89.60
2023-03-11T06:15:36.086Z,81.30
2023-03-11T06:18:38.725Z,92.95
2023-03-11T06:21:41.316Z,75.82
2023-03-11T06:24:43.818Z,82.18
2023-03-11T06:27:51.665Z,109.60
2023-03-11T06:30:56.887Z,63.45
2023-03-11T06:33:59.576Z,79.57
2023-03-11T06:37:02.685Z,59.35
2023-03-11T06:40:07.587Z,70.40
2023-03-11T06:43:10.028Z,63.53
2023-03-11T06:46:25.128Z,67.53
2023-03-11T06:49:28.622Z,86.05
2023-03-11T06:52:31.904Z,64.63
2023-03-11T06:55:35.486Z,96.07
2023-03-11T06:58:40.469Z,91.70
2023-03-11T07:01:46.564Z,97.32
2023-03-11T07:04:50.283Z,54.10
2023-03-11T07:07:55.747Z,100.60
2023-03-11T07:11:09.438Z,82.57
2023-03-11T07:14:11.493Z,94.40
2023-03-11T07:17:17.768Z,60.67
2023-03-11T07:20:23.953Z,65.03
2023-03-11T07:23:25.840Z,43.70
2023-03-11T07:26:29.277Z,55.78
2023-03-11T07:29:33.438Z,46.80
2023-03-11T07:32:35.369Z,49.40
2023-03-11T07:35:37.301Z,46.35
2023-03-11T07:38:40.983Z,52.03
2023-03-11T07:41:44.354Z,43.17
2023-03-11T07:44:51.870Z,39.78
2023-03-11T07:47:53.756Z,37.65
2023-03-11T07:51:11.761Z,33.58
2023-03-11T07:54:13.967Z,45.47
2023-03-11T07:57:17.296Z,41.03
2023-03-11T08:00:21.648Z,37.40
2023-03-11T08:03:24.866Z,39.42
2023-03-11T08:06:31.234Z,41.95
2023-03-11T08:09:35.159Z,39.75
2023-03-11T08:12:37.057Z,39.60
2023-03-11T08:15:41.149Z,40.63
2023-03-11T08:18:47.357Z,36.28
2023-03-11T08:21:49.231Z,37.50
2023-03-11T08:24:52.973Z,36.15
2023-03-11T08:27:57.598Z,35.47
2023-03-11T08:31:00.299Z,33.42
2023-03-11T08:34:09.089Z,31.50
2023-03-11T08:37:11.255Z,32.58
2023-03-11T08:40:13.407Z,32.83
2023-03-11T08:43:15.811Z,30.90
2023-03-11T08:46:27.193Z,30.88
2023-03-11T08:49:29.292Z,32.72
2023-03-11T08:52:33.600Z,30.30
2023-03-11T08:55:35.562Z,36.67
2023-03-11T08:58:37.757Z,33.47
2023-03-11T09:01:42.067Z,28.15
2023-03-11T09:04:43.994Z,28.50
2023-03-11T09:07:46.135Z,30.10
2023-03-11T09:10:48.015Z,31.80
2023-03-11T09:13:50.795Z,29.80
2023-03-11T09:16:55.146Z,35.25
2023-03-11T09:19:57.294Z,42.58
2023-03-11T09:22:59.175Z,33.33
2023-03-11T09:26:01.017Z,41.58
2023-03-11T09:29:02.870Z,68.65
2023-03-11T09:32:05.274Z,58.38
2023-03-11T09:35:07.278Z,41.10
2023-03-11T09:38:09.207Z,30.37
2023-03-11T09:41:16.990Z,24.85
2023-03-11T09:44:37.328Z,26.42
2023-03-11T09:48:17.790Z,26.45
2023-03-11T09:51:31.132Z,28.15
2023-03-11T09:54:41.832Z,27.83
2023-03-11T09:57:44.491Z,26.83
2023-03-11T10:00:48.668Z,28.73
2023-03-11T10:03:55.133Z,28.30
2023-03-11T10:07:00.114Z,30.33
2023-03-11T10:10:02.207Z,26.92
2023-03-11T10:13:25.826Z,29.15
2023-03-11T10:16:48.429Z,28.45
2023-03-11T10:19:56.492Z,28.20
2023-03-11T10:23:18.779Z,27.52
2023-03-11T10:26:23.617Z,27.10
2023-03-11T10:29:34.713Z,27.80
2023-03-11T10:32:46.697Z,26.67
2023-03-11T10:35:55.245Z,24.92
2023-03-11T10:38:57.551Z,42.13
2023-03-11T10:42:05.137Z,27.30
2023-03-11T10:45:13.973Z,32.83
2023-03-11T10:48:17.758Z,45.58
2023-03-11T10:51:26.786Z,39.60
2023-03-11T10:54:46.221Z,38.28
2023-03-11T10:57:50.268Z,33.47
2023-03-11T11:01:31.950Z,29.23
2023-03-11T11:04:41.220Z,25.88
2023-03-11T11:07:46.561Z,25.92
2023-03-11T11:11:03.001Z,33.33
2023-03-11T11:14:05.486Z,26.85
2023-03-11T11:17:28.980Z,27.55
2023-03-11T11:20:32.980Z,24.38
2023-03-11T11:23:46.831Z,23.63
2023-03-11T11:27:05.344Z,20.38
2023-03-11T11:30:11.318Z,20.23
2023-03-11T11:33:30.057Z,18.63
2023-03-11T11:36:36.946Z,21.85
2023-03-11T11:39:52.176Z,29.40
2023-03-11T11:43:18.405Z,29.95
2023-03-11T11:46:31.409Z,20.40
2023-03-11T11:52:45.223Z,20.63
2023-03-11T11:55:53.981Z,19.00
2023-03-11T11:58:55.912Z,17.90
2023-03-11T12:02:32.921Z,19.30
2023-03-11T12:05:45.631Z,21.48
2023-03-11T12:09:06.069Z,20.77
2023-03-11T12:12:40.296Z,19.38
2023-03-11T12:15:46.695Z,18.45
2023-03-11T12:19:13.129Z,17.80
2023-03-11T12:22:36.777Z,15.05
2023-03-11T12:25:53.421Z,17.48
2023-03-11T12:29:01.313Z,21.40
2023-03-11T12:32:04.073Z,15.38
2023-03-11T12:35:30.291Z,16.52
2023-03-11T12:38:35.757Z,16.55
2023-03-11T12:41:42.206Z,33.50
2023-03-11T12:44:45.703Z,30.40
2023-03-11T12:48:26.287Z,27.85
2023-03-11T12:51:34.338Z,25.42
2023-03-11T12:54:37.414Z,20.40
2023-03-11T12:57:48.318Z,13.05
2023-03-11T13:04:42.659Z,14.68
2023-03-11T13:07:54.143Z,17.83
2023-03-11T13:10:56.719Z,12.25
2023-03-11T13:14:18.013Z,13.73
2023-03-11T13:17:33.534Z,13.13
2023-03-11T13:20:44.514Z,13.25
2023-03-11T13:23:46.424Z,13.50
2023-03-11T13:27:03.374Z,12.35
2023-03-11T13:30:23.740Z,11.35
2023-03-11T13:33:43.569Z,20.70
2023-03-11T13:37:09.651Z,15.07
2023-03-11T13:40:36.599Z,10.90
2023-03-11T13:43:44.995Z,14.30
2023-03-11T13:46:55.437Z,13.98
2023-03-11T13:50:02.780Z,14.32
2023-03-11T13:53:17.627Z,12.68
2023-03-11T13:56:28.501Z,10.43
2023-03-11T13:59:33.783Z,10.70
2023-03-11T14:02:36.028Z,12.27
2023-03-11T14:05:46.431Z,13.07
2023-03-11T14:08:56.419Z,13.45
2023-03-11T14:12:05.394Z,12.45
2023-03-11T14:15:21.764Z,11.43
2023-03-11T14:18:34.238Z,16.38
2023-03-11T14:21:36.104Z,12.40
2023-03-11T14:24:39.698Z,12.70
2023-03-11T14:27:50.391Z,12.70
2023-03-11T14:30:57.731Z,13.68
2023-03-11T14:34:07.228Z,13.50
2023-03-11T14:37:34.652Z,14.57
2023-03-11T14:40:42.173Z,12.55
2023-03-11T14:43:49.736Z,23.45
2023-03-11T14:46:53.354Z,13.65
2023-03-11T14:49:57.278Z,17.90
2023-03-11T14:53:17.778Z,17.77
2023-03-11T14:56:23.815Z,13.07
2023-03-11T14:59:32.410Z,12.20
2023-03-11T15:02:40.346Z,12.48
2023-03-11T15:05:55.850Z,18.15
2023-03-11T15:09:03.794Z,14.02
2023-03-11T15:12:06.093Z,13.45
2023-03-11T15:15:23.931Z,15.88
2023-03-11T15:18:32.099Z,14.10
2023-03-11T15:21:34.603Z,15.15
2023-03-11T15:24:37.747Z,13.88
2023-03-11T15:27:40.152Z,14.32
2023-03-11T15:30:45.923Z,14.30
2023-03-11T15:33:49.263Z,14.40
2023-03-11T15:36:55.473Z,16.65
2023-03-11T15:40:11.667Z,45.22
2023-03-11T15:43:23.976Z,18.85
2023-03-11T15:46:26.231Z,17.70
2023-03-11T15:49:30.164Z,18.50
2023-03-11T15:52:32.001Z,15.80
2023-03-11T15:55:33.981Z,18.92
2023-03-11T15:58:37.992Z,15.67
2023-03-11T16:01:39.922Z,16.52
2023-03-11T16:04:43.068Z,23.30
2023-03-11T16:07:46.764Z,31.45
2023-03-11T16:10:48.642Z,120.53
2023-03-11T16:13:50.509Z,49.40
2023-03-11T16:16:52.359Z,26.35
2023-03-11T16:19:54.242Z,190.32
2023-03-11T16:23:02.504Z,81.88
2023-03-11T16:26:05.640Z,88.38
2023-03-11T16:29:18.654Z,53.13
2023-03-11T16:32:22.853Z,23.40
2023-03-11T16:35:25.467Z,40.60
2023-03-11T16:38:27.678Z,42.35
2023-03-11T16:41:29.540Z,53.72
2023-03-11T16:44:31.655Z,50.80
2023-03-11T16:47:33.535Z,29.08
2023-03-11T16:50:37.873Z,100.75
2023-03-11T16:53:39.835Z,30.67
2023-03-11T16:56:41.964Z,30.77
2023-03-11T16:59:45.658Z,199.80
2023-03-11T17:02:47.532Z,39.13
2023-03-11T17:05:49.944Z,63.70
2023-03-11T17:08:51.976Z,75.35
2023-03-11T17:11:53.844Z,243.10
2023-03-11T17:14:56.215Z,123.40
2023-03-11T17:17:58.747Z,49.10
2023-03-11T17:21:02.276Z,44.20
2023-03-11T17:24:04.269Z,45.08
2023-03-11T17:27:06.616Z,46.60
2023-03-11T17:30:09.464Z,55.53
2023-03-11T17:36:16.351Z,32.20
2023-03-11T17:39:18.185Z,33.90
2023-03-11T17:42:20.248Z,52.80
2023-03-11T17:45:22.114Z,38.03
2023-03-11T17:48:23.961Z,30.80
2023-03-11T17:51:26.440Z,34.17
2023-03-11T17:54:28.291Z,40.95
2023-03-11T17:57:33.597Z,27.05
2023-03-11T18:00:39.329Z,47.60
2023-03-11T18:03:41.655Z,32.60
2023-03-11T18:06:43.543Z,32.50
2023-03-11T18:09:51.638Z,35.60
2023-03-11T18:12:53.593Z,30.00
2023-03-11T18:16:05.607Z,32.47
2023-03-11T18:19:07.540Z,65.45
2023-03-11T18:22:09.468Z,38.00
2023-03-11T18:25:11.474Z,29.13
2023-03-11T18:28:13.305Z,39.03
2023-03-11T18:31:18.227Z,64.80
2023-03-11T18:34:23.004Z,64.78
2023-03-11T18:37:25.225Z,26.23
2023-03-11T18:40:28.054Z,22.48
2023-03-11T18:46:41.547Z,20.65
2023-03-11T18:49:43.629Z,28.30
2023-03-11T18:52:47.807Z,23.87
2023-03-11T18:55:50.740Z,21.50
2023-03-11T19:01:56.930Z,22.02
2023-03-11T19:04:59.036Z,21.42
2023-03-11T19:08:00.903Z,22.65
2023-03-11T19:11:10.734Z,17.30
2023-03-11T19:14:13.072Z,28.55
2023-03-11T19:17:16.541Z,21.08
2023-03-11T19:20:19.222Z,21.60
2023-03-11T19:23:21.184Z,20.20
2023-03-11T19:26:41.393Z,16.23
2023-03-11T19:29:45.353Z,17.83
2023-03-11T19:32:54.880Z,23.02
2023-03-11T19:36:04.722Z,25.08
2023-03-11T19:39:07.521Z,35.05
2023-03-11T19:45:17.059Z,19.98
2023-03-11T19:48:20.189Z,19.27
2023-03-11T19:51:22.074Z,89.63
2023-03-11T19:54:24.011Z,367.08
2023-03-11T19:57:29.450Z,47.20
2023-03-11T20:00:31.501Z,56.20
2023-03-11T20:03:33.370Z,115.97
2023-03-11T20:06:35.264Z,23.08
2023-03-11T20:09:37.090Z,25.20
2023-03-11T20:12:41.375Z,50.83
2023-03-11T20:15:47.373Z,84.25
2023-03-11T20:18:50.523Z,24.13
2023-03-11T20:21:52.476Z,17.73
2023-03-11T20:24:54.366Z,22.03
2023-03-11T20:27:59.737Z,25.38
2023-03-11T20:34:09.598Z,21.08
2023-03-11T20:37:11.990Z,23.23
2023-03-11T20:40:15.967Z,18.75
2023-03-11T20:43:17.853Z,18.30
2023-03-11T20:46:19.815Z,19.17
2023-03-11T20:49:22.071Z,15.97
2023-03-11T20:52:24.320Z,20.70
2023-03-11T20:55:26.203Z,19.95
2023-03-11T20:58:28.053Z,21.17
2023-03-11T21:01:31.903Z,27.52
2023-03-11T21:04:35.570Z,23.17
2023-03-11T21:07:37.977Z,30.13
2023-03-11T21:10:40.065Z,24.33
2023-03-11T21:13:44.637Z,25.88
2023-03-11T21:16:46.737Z,24.92
2023-03-11T21:19:48.756Z,22.95
2023-03-11T21:22:50.843Z,23.87
2023-03-11T21:26:03.928Z,26.43
2023-03-11T21:32:07.699Z,23.42
2023-03-11T21:35:09.739Z,22.63
2023-03-11T21:38:21.239Z,22.00
2023-03-11T21:41:26.241Z,25.33
2023-03-11T21:44:28.463Z,24.50
2023-03-11T21:47:31.509Z,22.13
2023-03-11T21:50:33.624Z,23.70
2023-03-11T21:53:35.627Z,22.10
2023-03-11T21:56:37.503Z,26.33
2023-03-11T21:59:41.813Z,25.25
2023-03-11T22:02:43.703Z,25.92
2023-03-11T22:05:45.979Z,23.90
2023-03-11T22:08:48.565Z,22.40
2023-03-11T22:11:50.656Z,22.45
2023-03-11T22:14:52.634Z,23.00
2023-03-11T22:17:56.025Z,23.17
2023-03-11T22:20:59.779Z,20.85
2023-03-11T22:24:03.844Z,22.15
2023-03-11T22:27:05.759Z,24.25
2023-03-11T22:30:08.744Z,20.10
2023-03-11T22:33:15.912Z,22.70
2023-03-11T22:36:17.913Z,22.75
2023-03-11T22:39:19.811Z,25.37
2023-03-11T22:42:21.812Z,19.42
2023-03-11T22:45:23.794Z,20.27
2023-03-11T22:48:25.707Z,22.47
2023-03-11T22:51:27.635Z,21.77
2023-03-11T22:54:29.661Z,20.45
2023-03-11T22:57:38.707Z,20.27
2023-03-11T23:00:44.214Z,21.00
2023-03-11T23:03:46.202Z,20.90
2023-03-11T23:06:49.244Z,23.40
2023-03-11T23:09:51.162Z,19.13
2023-03-11T23:12:53.058Z,22.13
2023-03-11T23:15:57.322Z,24.33
2023-03-11T23:19:01.676Z,19.27
2023-03-11T23:22:04.096Z,20.85
2023-03-11T23:25:08.325Z,23.23
2023-03-11T23:28:10.206Z,23.02
2023-03-11T23:31:14.485Z,20.40
2023-03-11T23:34:16.391Z,19.27
2023-03-11T23:37:23.799Z,18.67
2023-03-11T23:40:26.289Z,17.85
2023-03-11T23:43:28.084Z,19.77
2023-03-11T23:46:30.129Z,20.30
2023-03-11T23:49:32.046Z,18.03
2023-03-11T23:52:34.768Z,19.52
2023-03-11T23:55:38.166Z,24.83
2023-03-11T23:58:43.664Z,18.80
